Strona główna
METAR-TAF:

METAR-TAF

Lotnisko :

Port lotniczy Kuressaare

Kuressaare, Estonia

Szerokość geograficzna: 58-13-48N, Długość geograficzna: 022-30-34E, wysokość: 4 m

Aktualna obserwacja pogody

Raport powstał 13 minut temu, godzina 13:50 UTC
Wiatr 7 kt od północny zachód, zmienny między zachód i północ
Temperatura 21°C
Wilgotność 49%
Ciśnienie 1015 hPa
Widzialność 10 km lub więcej
Brak chmur poniżej 1500 m i brak chmur cumulonimbus

METAR: EEKE 211350Z 31007KT 260V350 CAVOK 21/10 Q1015

czas: 17:03 (14:03 UTC)

Prognoza

Raport powstał 11 godziny i 3 minut temu, godzina 03:00 UTC
Prognoza ważna od 21 godzina 04 UTC do 21 godzina 10 UTC
Wiatr 8 kt od zachód
Widzialność 10 km lub więcej
Brak chmur poniżej 1500 m i brak chmur cumulonimbus

TAF: EEKE 210300Z 2104/2110 28008KT CAVOK

Obserwacja i prognoza pogody dla ponad 4000 lotnisk (raport METAR i TAF).

Dostępne stacje oznaczono żółtymi i czerwonymi punktami na mapie.

Najedź kursorem aby zobaczyć nazwę stacji.

Kliknij aby zobaczyć obserwacje i prognozy pogody.

Aby zmienić mapę: kliknij na zielony przycisk z czarnym krzyżykiem, aby powiększyć; na zielony przycisk z myślnikiem, aby pomniejszyć; na zielone strzałki, aby przejść do map sąsiednich.


METAR-TAF: